sensor_id;sensor_type;location;lat;lon;timestamp;pressure;altitude;pressure_sealevel;temperature;humidity
49759;BME280;35654;46.080;11.118;2023-04-23T00:02:09;99065.16;;;15.14;70.35
49759;BME280;35654;46.080;11.118;2023-04-23T00:04:36;99059.84;;;15.09;70.53
49759;BME280;35654;46.080;11.118;2023-04-23T00:07:02;99058.88;;;15.05;71.25
49759;BME280;35654;46.080;11.118;2023-04-23T00:09:30;99060.69;;;15.01;71.08
49759;BME280;35654;46.080;11.118;2023-04-23T00:11:56;99059.88;;;15.00;70.82
49759;BME280;35654;46.080;11.118;2023-04-23T00:14:22;99053.09;;;14.98;69.96
49759;BME280;35654;46.080;11.118;2023-04-23T00:16:47;99056.16;;;14.96;70.64
49759;BME280;35654;46.080;11.118;2023-04-23T00:19:13;99053.41;;;14.96;70.70
49759;BME280;35654;46.080;11.118;2023-04-23T00:21:38;99061.00;;;14.99;70.71
49759;BME280;35654;46.080;11.118;2023-04-23T00:24:03;99057.50;;;14.90;71.35
49759;BME280;35654;46.080;11.118;2023-04-23T00:26:29;99057.19;;;14.83;72.20
49759;BME280;35654;46.080;11.118;2023-04-23T00:28:54;99055.59;;;14.82;71.21
49759;BME280;35654;46.080;11.118;2023-04-23T00:31:19;99061.41;;;14.81;70.77
49759;BME280;35654;46.080;11.118;2023-04-23T00:33:46;99065.31;;;14.80;71.15
49759;BME280;35654;46.080;11.118;2023-04-23T00:36:11;99060.59;;;14.80;70.89
49759;BME280;35654;46.080;11.118;2023-04-23T00:38:37;99059.66;;;14.76;71.33
49759;BME280;35654;46.080;11.118;2023-04-23T00:41:02;99059.00;;;14.79;71.39
49759;BME280;35654;46.080;11.118;2023-04-23T00:43:27;99062.91;;;14.78;71.79
49759;BME280;35654;46.080;11.118;2023-04-23T00:45:53;99061.09;;;14.82;72.04
49759;BME280;35654;46.080;11.118;2023-04-23T00:48:18;99054.25;;;14.88;71.80
49759;BME280;35654;46.080;11.118;2023-04-23T00:50:45;99051.50;;;14.88;71.38
49759;BME280;35654;46.080;11.118;2023-04-23T00:53:10;99046.78;;;14.89;71.78
49759;BME280;35654;46.080;11.118;2023-04-23T00:55:35;99047.94;;;14.88;71.66
49759;BME280;35654;46.080;11.118;2023-04-23T00:58:00;99044.03;;;14.89;71.59
49759;BME280;35654;46.080;11.118;2023-04-23T01:00:26;99043.72;;;14.90;71.76
49759;BME280;35654;46.080;11.118;2023-04-23T01:02:51;99053.31;;;14.84;71.99
49759;BME280;35654;46.080;11.118;2023-04-23T01:05:17;99058.81;;;14.84;71.97
49759;BME280;35654;46.080;11.118;2023-04-23T01:07:43;99050.56;;;14.84;71.60
49759;BME280;35654;46.080;11.118;2023-04-23T01:10:10;99050.88;;;14.83;71.83
49759;BME280;35654;46.080;11.118;2023-04-23T01:12:36;99057.09;;;14.71;72.32
49759;BME280;35654;46.080;11.118;2023-04-23T01:15:02;99056.63;;;14.61;72.82
49759;BME280;35654;46.080;11.118;2023-04-23T01:17:27;99058.09;;;14.58;72.82
49759;BME280;35654;46.080;11.118;2023-04-23T01:19:52;99054.53;;;14.49;74.09
49759;BME280;35654;46.080;11.118;2023-04-23T01:22:18;99058.63;;;14.43;74.73
49759;BME280;35654;46.080;11.118;2023-04-23T01:24:43;99054.72;;;14.44;74.45
49759;BME280;35654;46.080;11.118;2023-04-23T01:27:09;99053.75;;;14.48;73.94
49759;BME280;35654;46.080;11.118;2023-04-23T01:29:35;99053.09;;;14.51;73.57
49759;BME280;35654;46.080;11.118;2023-04-23T01:32:01;99053.41;;;14.50;73.49
49759;BME280;35654;46.080;11.118;2023-04-23T01:34:26;99057.28;;;14.49;73.91
49759;BME280;35654;46.080;11.118;2023-04-23T01:36:53;99052.59;;;14.49;73.84
49759;BME280;35654;46.080;11.118;2023-04-23T01:39:18;99053.09;;;14.51;73.67
49759;BME280;35654;46.080;11.118;2023-04-23T01:41:43;99055.16;;;14.54;73.25
49759;BME280;35654;46.080;11.118;2023-04-23T01:44:09;99057.47;;;14.52;73.37
49759;BME280;35654;46.080;11.118;2023-04-23T01:46:34;99048.09;;;14.45;73.72
49759;BME280;35654;46.080;11.118;2023-04-23T01:49:00;99048.88;;;14.54;73.75
49759;BME280;35654;46.080;11.118;2023-04-23T01:51:26;99052.91;;;14.56;74.09
49759;BME280;35654;46.080;11.118;2023-04-23T01:53:51;99050.63;;;14.58;72.83
49759;BME280;35654;46.080;11.118;2023-04-23T01:56:18;99055.69;;;14.56;73.59
49759;BME280;35654;46.080;11.118;2023-04-23T01:58:44;99050.81;;;14.53;72.90
49759;BME280;35654;46.080;11.118;2023-04-23T02:01:09;99044.84;;;14.51;73.17
49759;BME280;35654;46.080;11.118;2023-04-23T02:03:34;99042.56;;;14.45;73.36
49759;BME280;35654;46.080;11.118;2023-04-23T02:05:59;99050.34;;;14.51;73.26
49759;BME280;35654;46.080;11.118;2023-04-23T02:08:25;99048.88;;;14.54;72.91
49759;BME280;35654;46.080;11.118;2023-04-23T02:10:51;99048.38;;;14.52;73.48
49759;BME280;35654;46.080;11.118;2023-04-23T02:13:16;99048.03;;;14.62;73.91
49759;BME280;35654;46.080;11.118;2023-04-23T02:15:41;99043.47;;;14.66;73.90
49759;BME280;35654;46.080;11.118;2023-04-23T02:18:07;99038.97;;;14.62;73.85
49759;BME280;35654;46.080;11.118;2023-04-23T02:20:32;99043.19;;;14.59;73.45
49759;BME280;35654;46.080;11.118;2023-04-23T02:23:00;99032.16;;;14.59;74.32
49759;BME280;35654;46.080;11.118;2023-04-23T02:25:26;99033.47;;;14.53;74.54
49759;BME280;35654;46.080;11.118;2023-04-23T02:27:51;99028.16;;;14.39;74.97
49759;BME280;35654;46.080;11.118;2023-04-23T02:30:16;99031.09;;;14.34;75.97
49759;BME280;35654;46.080;11.118;2023-04-23T02:32:42;99039.84;;;14.19;76.80
49759;BME280;35654;46.080;11.118;2023-04-23T02:35:07;99032.22;;;14.16;76.99
49759;BME280;35654;46.080;11.118;2023-04-23T02:37:34;99033.84;;;14.17;77.03
49759;BME280;35654;46.080;11.118;2023-04-23T02:40:00;99026.56;;;14.13;77.33
49759;BME280;35654;46.080;11.118;2023-04-23T02:42:25;99030.94;;;14.14;77.72
49759;BME280;35654;46.080;11.118;2023-04-23T02:44:50;99026.41;;;14.18;77.64
49759;BME280;35654;46.080;11.118;2023-04-23T02:47:16;99024.59;;;14.22;77.31
49759;BME280;35654;46.080;11.118;2023-04-23T02:49:41;99021.53;;;14.23;76.88
49759;BME280;35654;46.080;11.118;2023-04-23T02:52:06;99029.00;;;14.23;76.42
49759;BME280;35654;46.080;11.118;2023-04-23T02:54:32;99026.72;;;14.25;77.39
49759;BME280;35654;46.080;11.118;2023-04-23T02:56:57;99025.41;;;14.22;77.64
49759;BME280;35654;46.080;11.118;2023-04-23T02:59:23;99023.31;;;14.19;77.99
49759;BME280;35654;46.080;11.118;2023-04-23T03:01:48;99023.66;;;14.18;78.35
49759;BME280;35654;46.080;11.118;2023-04-23T03:04:13;99027.53;;;14.08;78.17
49759;BME280;35654;46.080;11.118;2023-04-23T03:06:38;99041.16;;;14.05;78.69
49759;BME280;35654;46.080;11.118;2023-04-23T03:09:03;99038.56;;;13.99;78.99
49759;BME280;35654;46.080;11.118;2023-04-23T03:11:29;99038.91;;;13.98;79.57
49759;BME280;35654;46.080;11.118;2023-04-23T03:13:54;99035.00;;;13.99;79.73
49759;BME280;35654;46.080;11.118;2023-04-23T03:16:19;99038.41;;;13.87;79.99
49759;BME280;35654;46.080;11.118;2023-04-23T03:18:44;99037.13;;;13.68;81.29
49759;BME280;35654;46.080;11.118;2023-04-23T03:21:10;99040.84;;;13.63;81.81
49759;BME280;35654;46.080;11.118;2023-04-23T03:23:35;99037.44;;;13.75;81.38
49759;BME280;35654;46.080;11.118;2023-04-23T03:26:00;99035.03;;;13.73;80.82
49759;BME280;35654;46.080;11.118;2023-04-23T03:28:25;99037.28;;;13.71;80.58
49759;BME280;35654;46.080;11.118;2023-04-23T03:30:51;99041.81;;;13.67;80.10
49759;BME280;35654;46.080;11.118;2023-04-23T03:33:16;99043.28;;;13.56;80.71
49759;BME280;35654;46.080;11.118;2023-04-23T03:35:41;99042.44;;;13.56;80.75
49759;BME280;35654;46.080;11.118;2023-04-23T03:38:06;99042.94;;;13.58;80.89
49759;BME280;35654;46.080;11.118;2023-04-23T03:40:32;99041.47;;;13.60;80.86
49759;BME280;35654;46.080;11.118;2023-04-23T03:42:57;99047.78;;;13.61;80.60
49759;BME280;35654;46.080;11.118;2023-04-23T03:45:22;99046.31;;;13.55;81.29
49759;BME280;35654;46.080;11.118;2023-04-23T03:47:48;99047.13;;;13.55;81.39
49759;BME280;35654;46.080;11.118;2023-04-23T03:50:13;99041.34;;;13.57;81.67
49759;BME280;35654;46.080;11.118;2023-04-23T03:52:38;99044.09;;;13.57;81.59
49759;BME280;35654;46.080;11.118;2023-04-23T03:55:04;99047.31;;;13.59;80.86
49759;BME280;35654;46.080;11.118;2023-04-23T03:57:29;99054.09;;;13.53;81.29
49759;BME280;35654;46.080;11.118;2023-04-23T03:59:55;99044.56;;;13.50;81.48
49759;BME280;35654;46.080;11.118;2023-04-23T04:02:21;99042.75;;;13.46;80.71
49759;BME280;35654;46.080;11.118;2023-04-23T04:04:46;99041.44;;;13.43;80.77
49759;BME280;35654;46.080;11.118;2023-04-23T04:07:13;99044.06;;;13.48;80.37
49759;BME280;35654;46.080;11.118;2023-04-23T04:09:39;99050.69;;;13.47;80.90
49759;BME280;35654;46.080;11.118;2023-04-23T04:12:04;99044.38;;;13.55;80.39
49759;BME280;35654;46.080;11.118;2023-04-23T04:14:30;99043.91;;;13.53;80.72
49759;BME280;35654;46.080;11.118;2023-04-23T04:16:55;99043.44;;;13.51;81.08
49759;BME280;35654;46.080;11.118;2023-04-23T04:19:21;99046.81;;;13.48;81.41
49759;BME280;35654;46.080;11.118;2023-04-23T04:21:46;99045.34;;;13.42;81.78
49759;BME280;35654;46.080;11.118;2023-04-23T04:24:12;99040.78;;;13.37;81.48
49759;BME280;35654;46.080;11.118;2023-04-23T04:26:37;99046.16;;;13.34;81.14
49759;BME280;35654;46.080;11.118;2023-04-23T04:29:02;99044.34;;;13.29;81.51
49759;BME280;35654;46.080;11.118;2023-04-23T04:31:28;99048.09;;;13.33;81.67
49759;BME280;35654;46.080;11.118;2023-04-23T04:33:54;99036.13;;;13.38;81.22
49759;BME280;35654;46.080;11.118;2023-04-23T04:36:22;99044.19;;;13.43;80.86
49759;BME280;35654;46.080;11.118;2023-04-23T04:38:49;99036.59;;;13.40;80.57
49759;BME280;35654;46.080;11.118;2023-04-23T04:41:15;99044.53;;;13.41;80.14
49759;BME280;35654;46.080;11.118;2023-04-23T04:43:41;99052.78;;;13.41;80.34
49759;BME280;35654;46.080;11.118;2023-04-23T04:46:07;99048.09;;;13.42;80.67
49759;BME280;35654;46.080;11.118;2023-04-23T04:48:35;99049.06;;;13.46;80.36
49759;BME280;35654;46.080;11.118;2023-04-23T04:51:01;99050.69;;;13.47;80.37
49759;BME280;35654;46.080;11.118;2023-04-23T04:53:26;99049.25;;;13.50;79.89
49759;BME280;35654;46.080;11.118;2023-04-23T04:55:51;99056.69;;;13.49;79.95
49759;BME280;35654;46.080;11.118;2023-04-23T04:58:16;99052.63;;;13.55;80.10
49759;BME280;35654;46.080;11.118;2023-04-23T05:00:41;99050.53;;;13.61;80.13
49759;BME280;35654;46.080;11.118;2023-04-23T05:03:07;99058.34;;;13.76;79.49
49759;BME280;35654;46.080;11.118;2023-04-23T05:05:32;99054.25;;;13.90;78.75
49759;BME280;35654;46.080;11.118;2023-04-23T05:07:57;99059.00;;;13.98;78.40
49759;BME280;35654;46.080;11.118;2023-04-23T05:10:26;99052.50;;;14.12;77.86
49759;BME280;35654;46.080;11.118;2023-04-23T05:12:51;99056.53;;;14.14;77.85
49759;BME280;35654;46.080;11.118;2023-04-23T05:15:16;99060.22;;;14.27;77.73
49759;BME280;35654;46.080;11.118;2023-04-23T05:17:42;99064.97;;;14.35;77.58
49759;BME280;35654;46.080;11.118;2023-04-23T05:20:07;99066.41;;;14.32;76.83
49759;BME280;35654;46.080;11.118;2023-04-23T05:22:37;99066.56;;;14.36;77.64
49759;BME280;35654;46.080;11.118;2023-04-23T05:25:02;99066.38;;;14.24;78.11
49759;BME280;35654;46.080;11.118;2023-04-23T05:27:28;99073.34;;;14.21;78.17
49759;BME280;35654;46.080;11.118;2023-04-23T05:29:53;99069.81;;;14.12;78.15
49759;BME280;35654;46.080;11.118;2023-04-23T05:32:18;99070.94;;;14.11;78.50
49759;BME280;35654;46.080;11.118;2023-04-23T05:34:44;99075.47;;;14.24;78.54
49759;BME280;35654;46.080;11.118;2023-04-23T05:37:09;99069.97;;;14.33;78.31
49759;BME280;35654;46.080;11.118;2023-04-23T05:39:35;99071.25;;;14.35;78.03
49759;BME280;35654;46.080;11.118;2023-04-23T05:42:00;99074.84;;;14.36;78.44
49759;BME280;35654;46.080;11.118;2023-04-23T05:44:26;99075.31;;;14.38;78.34
49759;BME280;35654;46.080;11.118;2023-04-23T05:46:51;99077.28;;;14.37;77.87
49759;BME280;35654;46.080;11.118;2023-04-23T05:49:16;99070.94;;;14.45;77.83
49759;BME280;35654;46.080;11.118;2023-04-23T05:51:41;99069.66;;;14.43;77.70
49759;BME280;35654;46.080;11.118;2023-04-23T05:54:07;99065.44;;;14.45;77.81
49759;BME280;35654;46.080;11.118;2023-04-23T05:56:32;99063.97;;;14.48;76.75
49759;BME280;35654;46.080;11.118;2023-04-23T05:58:57;99068.66;;;14.39;77.52
49759;BME280;35654;46.080;11.118;2023-04-23T06:01:22;99063.31;;;14.51;77.09
49759;BME280;35654;46.080;11.118;2023-04-23T06:03:48;99055.34;;;14.49;76.31
49759;BME280;35654;46.080;11.118;2023-04-23T06:06:13;99064.56;;;14.62;76.60
49759;BME280;35654;46.080;11.118;2023-04-23T06:08:39;99062.09;;;14.69;75.94
49759;BME280;35654;46.080;11.118;2023-04-23T06:11:04;99055.47;;;14.70;75.69
49759;BME280;35654;46.080;11.118;2023-04-23T06:13:30;99061.91;;;14.74;73.54
49759;BME280;35654;46.080;11.118;2023-04-23T06:15:56;99057.94;;;14.54;74.41
49759;BME280;35654;46.080;11.118;2023-04-23T06:18:21;99063.81;;;14.44;76.31
49759;BME280;35654;46.080;11.118;2023-04-23T06:20:46;99063.00;;;14.35;77.30
49759;BME280;35654;46.080;11.118;2023-04-23T06:23:13;99061.22;;;14.31;76.16
49759;BME280;35654;46.080;11.118;2023-04-23T06:25:38;99057.03;;;14.33;75.83
49759;BME280;35654;46.080;11.118;2023-04-23T06:28:03;99060.72;;;14.46;74.90
49759;BME280;35654;46.080;11.118;2023-04-23T06:30:29;99069.28;;;14.62;75.01
49759;BME280;35654;46.080;11.118;2023-04-23T06:32:54;99065.41;;;14.54;76.21
49759;BME280;35654;46.080;11.118;2023-04-23T06:35:19;99067.97;;;14.68;75.35
49759;BME280;35654;46.080;11.118;2023-04-23T06:37:44;99062.59;;;14.71;74.08
49759;BME280;35654;46.080;11.118;2023-04-23T06:40:10;99070.81;;;14.80;73.78
49759;BME280;35654;46.080;11.118;2023-04-23T06:42:35;99064.81;;;14.86;74.11
49759;BME280;35654;46.080;11.118;2023-04-23T06:45:00;99068.00;;;14.97;73.81
49759;BME280;35654;46.080;11.118;2023-04-23T06:47:29;99064.53;;;15.08;73.13
49759;BME280;35654;46.080;11.118;2023-04-23T06:49:54;99067.69;;;15.28;72.73
49759;BME280;35654;46.080;11.118;2023-04-23T06:52:19;99068.28;;;15.12;72.74
49759;BME280;35654;46.080;11.118;2023-04-23T06:54:44;99053.97;;;15.10;72.06
49759;BME280;35654;46.080;11.118;2023-04-23T06:57:10;99061.69;;;15.26;71.50
49759;BME280;35654;46.080;11.118;2023-04-23T06:59:35;99060.28;;;15.20;72.08
49759;BME280;35654;46.080;11.118;2023-04-23T07:02:00;99042.59;;;15.41;71.36
49759;BME280;35654;46.080;11.118;2023-04-23T07:04:25;99040.78;;;15.54;70.33
49759;BME280;35654;46.080;11.118;2023-04-23T07:06:51;99043.53;;;15.74;69.36
49759;BME280;35654;46.080;11.118;2023-04-23T07:09:16;99041.38;;;15.80;68.74
49759;BME280;35654;46.080;11.118;2023-04-23T07:11:41;99042.63;;;15.91;68.86
49759;BME280;35654;46.080;11.118;2023-04-23T07:14:06;99043.41;;;16.12;67.86
49759;BME280;35654;46.080;11.118;2023-04-23T07:16:33;99038.59;;;16.21;67.35
49759;BME280;35654;46.080;11.118;2023-04-23T07:18:59;99037.06;;;16.12;68.42
49759;BME280;35654;46.080;11.118;2023-04-23T07:21:25;99037.22;;;16.27;67.74
49759;BME280;35654;46.080;11.118;2023-04-23T07:23:51;99042.50;;;16.53;67.60
49759;BME280;35654;46.080;11.118;2023-04-23T07:26:17;99042.28;;;16.25;67.40
49759;BME280;35654;46.080;11.118;2023-04-23T07:28:42;99043.59;;;16.07;68.61
49759;BME280;35654;46.080;11.118;2023-04-23T07:31:07;99037.28;;;16.40;67.77
49759;BME280;35654;46.080;11.118;2023-04-23T07:33:33;99034.84;;;16.71;66.07
49759;BME280;35654;46.080;11.118;2023-04-23T07:35:58;99035.91;;;16.91;65.41
49759;BME280;35654;46.080;11.118;2023-04-23T07:38:23;99036.75;;;16.58;65.74
49759;BME280;35654;46.080;11.118;2023-04-23T07:40:48;99025.16;;;16.65;65.38
49759;BME280;35654;46.080;11.118;2023-04-23T07:43:14;99026.19;;;16.60;65.27
49759;BME280;35654;46.080;11.118;2023-04-23T07:45:40;99022.16;;;16.58;65.74
49759;BME280;35654;46.080;11.118;2023-04-23T07:48:06;99021.16;;;16.74;64.94
49759;BME280;35654;46.080;11.118;2023-04-23T07:50:31;99018.94;;;16.92;65.10
49759;BME280;35654;46.080;11.118;2023-04-23T07:52:56;99020.91;;;17.04;63.91
49759;BME280;35654;46.080;11.118;2023-04-23T07:55:22;99016.09;;;17.25;63.15
49759;BME280;35654;46.080;11.118;2023-04-23T07:57:47;99009.50;;;17.41;62.07
49759;BME280;35654;46.080;11.118;2023-04-23T08:00:12;99018.72;;;17.58;61.25
49759;BME280;35654;46.080;11.118;2023-04-23T08:02:38;99011.72;;;17.76;60.07
49759;BME280;35654;46.080;11.118;2023-04-23T08:05:03;99019.72;;;17.65;60.17
49759;BME280;35654;46.080;11.118;2023-04-23T08:07:29;99021.34;;;17.66;60.83
49759;BME280;35654;46.080;11.118;2023-04-23T08:09:54;99025.66;;;17.91;59.91
49759;BME280;35654;46.080;11.118;2023-04-23T08:12:19;99015.63;;;17.87;59.86
49759;BME280;35654;46.080;11.118;2023-04-23T08:14:45;99017.31;;;17.64;61.32
49759;BME280;35654;46.080;11.118;2023-04-23T08:17:11;99008.56;;;17.50;62.08
49759;BME280;35654;46.080;11.118;2023-04-23T08:19:36;99013.19;;;17.33;62.46
49759;BME280;35654;46.080;11.118;2023-04-23T08:22:02;99016.66;;;17.18;63.56
49759;BME280;35654;46.080;11.118;2023-04-23T08:24:27;99006.03;;;17.44;62.30
49759;BME280;35654;46.080;11.118;2023-04-23T08:26:53;98999.91;;;17.91;60.03
49759;BME280;35654;46.080;11.118;2023-04-23T08:29:18;99005.50;;;18.07;59.49
49759;BME280;35654;46.080;11.118;2023-04-23T08:31:43;98999.44;;;18.44;59.33
49759;BME280;35654;46.080;11.118;2023-04-23T08:34:08;98990.91;;;18.81;57.99
49759;BME280;35654;46.080;11.118;2023-04-23T08:36:34;98993.66;;;19.12;56.12
49759;BME280;35654;46.080;11.118;2023-04-23T08:38:59;98988.88;;;19.12;56.19
49759;BME280;35654;46.080;11.118;2023-04-23T08:41:26;98983.47;;;19.00;56.02
49759;BME280;35654;46.080;11.118;2023-04-23T08:46:29;98982.19;;;18.51;56.74
49759;BME280;35654;46.080;11.118;2023-04-23T08:48:55;98980.53;;;18.34;57.79
49759;BME280;35654;46.080;11.118;2023-04-23T08:51:21;98981.88;;;18.40;58.06
49759;BME280;35654;46.080;11.118;2023-04-23T08:53:49;98978.63;;;18.50;57.41
49759;BME280;35654;46.080;11.118;2023-04-23T08:56:16;98974.59;;;18.64;57.38
49759;BME280;35654;46.080;11.118;2023-04-23T08:58:41;98972.44;;;18.57;57.58
49759;BME280;35654;46.080;11.118;2023-04-23T09:01:07;98978.47;;;18.75;56.88
49759;BME280;35654;46.080;11.118;2023-04-23T09:03:32;98974.28;;;19.15;54.95
49759;BME280;35654;46.080;11.118;2023-04-23T09:05:58;98970.59;;;19.43;54.50
49759;BME280;35654;46.080;11.118;2023-04-23T09:08:23;98961.41;;;19.77;52.81
49759;BME280;35654;46.080;11.118;2023-04-23T09:10:48;98960.81;;;20.25;51.41
49759;BME280;35654;46.080;11.118;2023-04-23T09:13:15;98958.16;;;20.32;49.92
49759;BME280;35654;46.080;11.118;2023-04-23T09:15:40;98951.53;;;20.60;48.43
49759;BME280;35654;46.080;11.118;2023-04-23T09:18:07;98953.91;;;20.84;47.07
49759;BME280;35654;46.080;11.118;2023-04-23T09:20:33;98948.28;;;20.58;47.62
49759;BME280;35654;46.080;11.118;2023-04-23T09:22:59;98944.75;;;20.38;48.98
49759;BME280;35654;46.080;11.118;2023-04-23T09:25:24;98935.75;;;19.84;50.51
49759;BME280;35654;46.080;11.118;2023-04-23T09:27:50;98928.47;;;20.17;49.08
49759;BME280;35654;46.080;11.118;2023-04-23T09:30:16;98922.41;;;20.31;50.23
49759;BME280;35654;46.080;11.118;2023-04-23T09:32:43;98925.53;;;20.52;48.54
49759;BME280;35654;46.080;11.118;2023-04-23T09:35:13;98913.16;;;20.72;48.39
49759;BME280;35654;46.080;11.118;2023-04-23T09:37:46;98911.63;;;21.01;47.62
49759;BME280;35654;46.080;11.118;2023-04-23T09:40:12;98909.56;;;22.14;45.56
49759;BME280;35654;46.080;11.118;2023-04-23T09:42:38;98902.19;;;22.35;43.38
49759;BME280;35654;46.080;11.118;2023-04-23T09:45:07;98903.19;;;22.13;43.91
49759;BME280;35654;46.080;11.118;2023-04-23T09:47:33;98904.41;;;21.82;44.05
49759;BME280;35654;46.080;11.118;2023-04-23T09:49:59;98894.47;;;21.52;44.90
49759;BME280;35654;46.080;11.118;2023-04-23T09:52:24;98895.78;;;21.91;44.77
49759;BME280;35654;46.080;11.118;2023-04-23T09:54:50;98888.97;;;22.29;43.85
49759;BME280;35654;46.080;11.118;2023-04-23T09:57:16;98878.47;;;22.59;42.79
49759;BME280;35654;46.080;11.118;2023-04-23T09:59:41;98877.22;;;23.00;42.07
49759;BME280;35654;46.080;11.118;2023-04-23T10:02:07;98889.63;;;23.03;41.73
49759;BME280;35654;46.080;11.118;2023-04-23T10:04:33;98875.22;;;22.97;41.46
49759;BME280;35654;46.080;11.118;2023-04-23T10:07:00;98867.41;;;22.66;42.40
49759;BME280;35654;46.080;11.118;2023-04-23T10:09:26;98870.66;;;22.72;41.91
49759;BME280;35654;46.080;11.118;2023-04-23T10:11:57;98869.94;;;22.38;42.74
49759;BME280;35654;46.080;11.118;2023-04-23T10:14:24;98869.41;;;22.25;43.10
49759;BME280;35654;46.080;11.118;2023-04-23T10:16:50;98874.47;;;22.13;43.46
49759;BME280;35654;46.080;11.118;2023-04-23T10:19:16;98864.66;;;21.89;43.83
49759;BME280;35654;46.080;11.118;2023-04-23T10:21:43;98854.81;;;21.98;43.86
49759;BME280;35654;46.080;11.118;2023-04-23T10:24:10;98861.84;;;22.66;42.81
49759;BME280;35654;46.080;11.118;2023-04-23T10:26:37;98853.63;;;23.63;40.93
49759;BME280;35654;46.080;11.118;2023-04-23T10:29:04;98854.19;;;24.25;39.17
49759;BME280;35654;46.080;11.118;2023-04-23T10:31:31;98854.13;;;24.00;39.22
49759;BME280;35654;46.080;11.118;2023-04-23T10:33:56;98841.75;;;23.94;40.04
49759;BME280;35654;46.080;11.118;2023-04-23T10:36:22;98853.41;;;24.17;39.58
49759;BME280;35654;46.080;11.118;2023-04-23T10:38:49;98848.47;;;23.79;39.81
49759;BME280;35654;46.080;11.118;2023-04-23T10:41:15;98848.84;;;23.67;39.90
49759;BME280;35654;46.080;11.118;2023-04-23T10:43:41;98848.38;;;23.51;40.35
49759;BME280;35654;46.080;11.118;2023-04-23T10:46:26;98849.19;;;23.48;40.03
49759;BME280;35654;46.080;11.118;2023-04-23T10:49:03;98853.75;;;23.08;40.68
49759;BME280;35654;46.080;11.118;2023-04-23T10:51:35;98849.88;;;22.66;41.49
49759;BME280;35654;46.080;11.118;2023-04-23T10:54:02;98841.88;;;22.64;41.83
49759;BME280;35654;46.080;11.118;2023-04-23T10:56:27;98835.84;;;23.20;40.77
49759;BME280;35654;46.080;11.118;2023-04-23T10:58:52;98827.00;;;24.78;38.27
49759;BME280;35654;46.080;11.118;2023-04-23T11:01:17;98823.28;;;27.06;33.51
49759;BME280;35654;46.080;11.118;2023-04-23T11:03:44;98824.59;;;28.73;30.74
49759;BME280;35654;46.080;11.118;2023-04-23T11:06:12;98822.66;;;28.70;31.16
49759;BME280;35654;46.080;11.118;2023-04-23T11:08:49;98817.38;;;28.22;31.55
49759;BME280;35654;46.080;11.118;2023-04-23T11:11:15;98815.72;;;27.00;33.98
49759;BME280;35654;46.080;11.118;2023-04-23T11:13:49;98813.34;;;25.99;35.11
49759;BME280;35654;46.080;11.118;2023-04-23T11:16:21;98814.44;;;25.43;36.21
49759;BME280;35654;46.080;11.118;2023-04-23T11:18:54;98813.19;;;25.58;35.76
49759;BME280;35654;46.080;11.118;2023-04-23T11:21:19;98804.25;;;26.84;33.57
49759;BME280;35654;46.080;11.118;2023-04-23T11:23:44;98801.56;;;29.40;29.84
49759;BME280;35654;46.080;11.118;2023-04-23T11:26:10;98789.63;;;31.18;27.62
49759;BME280;35654;46.080;11.118;2023-04-23T11:28:38;98780.88;;;31.82;26.24
49759;BME280;35654;46.080;11.118;2023-04-23T11:31:06;98781.44;;;33.95;23.88
49759;BME280;35654;46.080;11.118;2023-04-23T11:33:33;98776.81;;;34.11;22.67
49759;BME280;35654;46.080;11.118;2023-04-23T11:35:58;98776.31;;;31.97;24.82
49759;BME280;35654;46.080;11.118;2023-04-23T11:38:30;98771.94;;;30.04;27.95
49759;BME280;35654;46.080;11.118;2023-04-23T11:40:55;98769.13;;;29.68;29.00
49759;BME280;35654;46.080;11.118;2023-04-23T11:43:20;98755.31;;;28.29;30.58
49759;BME280;35654;46.080;11.118;2023-04-23T11:45:47;98749.03;;;28.68;29.97
49759;BME280;35654;46.080;11.118;2023-04-23T11:48:13;98746.25;;;29.47;29.10
49759;BME280;35654;46.080;11.118;2023-04-23T11:50:38;98743.34;;;28.91;29.57
49759;BME280;35654;46.080;11.118;2023-04-23T11:53:06;98748.53;;;26.79;32.94
49759;BME280;35654;46.080;11.118;2023-04-23T11:55:32;98744.72;;;26.14;34.57
49759;BME280;35654;46.080;11.118;2023-04-23T11:57:58;98749.06;;;24.45;36.60
49759;BME280;35654;46.080;11.118;2023-04-23T12:00:24;98742.25;;;23.93;37.03
49759;BME280;35654;46.080;11.118;2023-04-23T12:05:18;98743.47;;;22.74;39.72
49759;BME280;35654;46.080;11.118;2023-04-23T12:07:46;98743.78;;;22.08;40.69
49759;BME280;35654;46.080;11.118;2023-04-23T12:10:15;98751.16;;;21.86;41.75
49759;BME280;35654;46.080;11.118;2023-04-23T12:12:41;98760.81;;;21.95;41.90
49759;BME280;35654;46.080;11.118;2023-04-23T12:15:06;98761.88;;;21.43;44.78
49759;BME280;35654;46.080;11.118;2023-04-23T12:17:32;98749.16;;;21.46;41.09
49759;BME280;35654;46.080;11.118;2023-04-23T12:19:57;98761.88;;;21.10;41.75
49759;BME280;35654;46.080;11.118;2023-04-23T12:22:26;98764.22;;;20.78;41.86
49759;BME280;35654;46.080;11.118;2023-04-23T12:24:52;98746.06;;;20.32;42.01
49759;BME280;35654;46.080;11.118;2023-04-23T12:27:19;98751.16;;;20.04;45.62
49759;BME280;35654;46.080;11.118;2023-04-23T12:29:46;98744.09;;;19.23;49.95
49759;BME280;35654;46.080;11.118;2023-04-23T12:32:15;98748.69;;;18.42;54.88
49759;BME280;35654;46.080;11.118;2023-04-23T12:34:53;98733.22;;;18.06;57.78
49759;BME280;35654;46.080;11.118;2023-04-23T12:37:22;98721.47;;;18.13;60.42
49759;BME280;35654;46.080;11.118;2023-04-23T12:39:48;98726.13;;;18.59;60.17
49759;BME280;35654;46.080;11.118;2023-04-23T12:42:13;98729.63;;;18.56;57.27
49759;BME280;35654;46.080;11.118;2023-04-23T12:44:39;98727.22;;;19.73;57.52
49759;BME280;35654;46.080;11.118;2023-04-23T12:47:08;98725.28;;;23.08;46.35
49759;BME280;35654;46.080;11.118;2023-04-23T12:49:35;98738.72;;;25.54;41.94